Time;durP1;ratioP1;P1;durP2;ratioP2;P2;SDS_P1;SDS_P2;PMS_P1;PMS_P2;Temp;Humidity;BMP_temperature;BMP_pressure;BME280_temperature;BME280_humidity;BME280_pressure;Samples;Min_cycle;Max_cycle;Signal;HPM_P1;HPM_P2
2022/08/12 00:42:52;;;;;;;3.72;2.88;;;;;;;23.35;37.17;101838.16;4964547;28;124515;-74
2022/08/12 00:45:19;;;;;;;3.25;2.60;;;;;;;23.31;37.39;101840.25;4964304;28;114131;-73
2022/08/12 00:47:48;;;;;;;4.50;3.10;;;;;;;23.27;37.52;101838.78;4962286;28;113913;-74
2022/08/12 00:50:18;;;;;;;4.68;2.80;;;;;;;23.25;37.84;101835.38;4966084;28;124198;-74
2022/08/12 00:52:48;;;;;;;4.43;2.78;;;;;;;23.20;37.75;101834.88;4963453;28;123926;-75
2022/08/12 00:55:16;;;;;;;4.47;2.90;;;;;;;23.17;37.85;101833.31;4964189;28;113279;-74
2022/08/12 00:57:47;;;;;;;4.20;3.22;;;;;;;23.13;38.00;101835.41;4946181;28;116299;-74
2022/08/12 01:00:14;;;;;;;5.88;2.97;;;;;;;23.10;37.94;101835.63;4961505;28;125126;-74
2022/08/12 01:02:50;;;;;;;3.88;2.72;;;;;;;23.05;38.14;101832.44;4964508;28;124138;-75
2022/08/12 01:13:46;;;;;;;5.30;3.10;;;;;;;22.86;38.47;101843.03;4966458;28;123858;-74
2022/08/12 01:16:19;;;;;;;3.65;3.20;;;;;;;22.83;38.59;101840.56;4965866;28;114272;-74
2022/08/12 01:18:46;;;;;;;4.18;3.28;;;;;;;22.81;38.50;101839.84;4947923;28;113310;-75
2022/08/12 01:21:30;;;;;;;3.80;3.20;;;;;;;22.77;38.64;101832.97;4936423;28;122961;-75
2022/08/12 01:24:35;;;;;;;5.35;3.17;;;;;;;22.74;38.53;101839.50;4969393;28;124769;-75
2022/08/12 01:27:03;;;;;;;3.70;3.10;;;;;;;22.69;38.63;101837.13;4951642;28;116006;-75
2022/08/12 01:29:40;;;;;;;4.65;3.22;;;;;;;22.64;38.75;101839.38;4965555;28;114676;-75
2022/08/12 01:32:14;;;;;;;6.28;3.30;;;;;;;22.62;39.08;101841.34;4964298;28;123973;-73
2022/08/12 01:34:53;;;;;;;4.55;3.30;;;;;;;22.60;38.96;101843.28;4949956;28;124136;-75
2022/08/12 01:37:23;;;;;;;4.03;3.20;;;;;;;22.58;39.24;101834.44;4968816;28;112368;-74
2022/08/12 01:39:54;;;;;;;5.75;3.42;;;;;;;22.57;39.32;101832.75;4970005;28;114077;-74
2022/08/12 01:42:48;;;;;;;6.75;3.90;;;;;;;22.53;39.43;101836.69;4970703;28;123526;-74
2022/08/12 01:45:17;;;;;;;4.25;3.30;;;;;;;22.52;39.53;101829.53;4966631;28;123770;-74
2022/08/12 01:48:12;;;;;;;3.97;3.22;;;;;;;22.50;39.53;101826.13;4970122;28;114713;-74
2022/08/12 01:50:57;;;;;;;4.53;3.10;;;;;;;22.45;39.37;101822.91;4970044;28;113498;-75
2022/08/12 01:54:03;;;;;;;4.22;3.10;;;;;;;22.41;39.51;101832.25;4982427;28;124531;-74
2022/08/12 01:57:12;;;;;;;5.25;3.40;;;;;;;22.34;39.37;101838.13;4994043;28;121884;-74
2022/08/12 01:59:45;;;;;;;5.97;3.30;;;;;;;22.30;39.38;101842.06;4992019;28;114982;-74
2022/08/12 02:02:25;;;;;;;4.65;3.30;;;;;;;22.26;39.87;101835.16;4981968;28;112833;-74
2022/08/12 02:11:16;;;;;;;4.65;3.30;;;;;;;22.12;39.93;101838.06;4969938;28;114206;-74
2022/08/12 02:14:08;;;;;;;3.78;3.38;;;;;;;22.05;39.96;101843.06;4968335;28;113970;-74
2022/08/12 02:16:49;;;;;;;4.80;3.40;;;;;;;22.01;40.33;101840.75;4965500;28;124789;-74
2022/08/12 02:19:41;;;;;;;5.90;3.45;;;;;;;21.97;40.38;101840.13;4965242;28;123508;-74
2022/08/12 02:22:35;;;;;;;5.53;3.25;;;;;;;21.93;40.37;101844.91;4958719;28;114904;-74
2022/08/12 02:25:20;;;;;;;8.57;3.60;;;;;;;21.88;40.75;101839.00;4949937;28;114939;-73
2022/08/12 02:27:50;;;;;;;6.87;3.53;;;;;;;21.85;40.64;101847.34;4965590;28;125432;-73
2022/08/12 02:30:30;;;;;;;4.00;3.17;;;;;;;21.82;40.72;101836.78;4967751;28;122693;-73
2022/08/12 02:33:09;;;;;;;10.27;4.05;;;;;;;21.81;40.87;101840.44;4967523;28;114128;-74
2022/08/12 02:35:38;;;;;;;4.18;3.60;;;;;;;21.80;41.13;101838.72;4951227;28;113067;-73
2022/08/12 02:38:10;;;;;;;5.18;3.67;;;;;;;21.80;41.30;101837.88;4966640;28;124174;-73
2022/08/12 02:40:41;;;;;;;6.85;3.53;;;;;;;21.79;41.20;101837.00;4951598;28;124226;-73
2022/08/12 02:43:20;;;;;;;8.13;3.90;;;;;;;21.79;41.37;101837.00;4967226;28;114374;-73
2022/08/12 02:46:03;;;;;;;6.80;4.00;;;;;;;21.76;41.24;101839.94;4967626;28;112818;-73
2022/08/12 02:48:44;;;;;;;5.15;3.30;;;;;;;21.76;41.53;101837.25;4965981;28;123940;-73
2022/08/12 02:51:16;;;;;;;5.95;3.75;;;;;;;21.74;41.61;101823.88;4949579;28;123706;-73
2022/08/12 02:53:44;;;;;;;5.45;3.67;;;;;;;21.74;41.76;101828.44;4950912;28;113261;-73
2022/08/12 02:56:31;;;;;;;7.38;3.65;;;;;;;21.72;41.77;101830.38;4968620;28;113608;-73
2022/08/12 02:59:00;;;;;;;4.60;3.40;;;;;;;21.71;41.92;101829.50;4968668;28;124276;-73
2022/08/12 03:01:32;;;;;;;5.30;3.85;;;;;;;21.72;42.04;101825.00;4967259;28;124974;-73
2022/08/12 03:04:04;;;;;;;5.03;3.92;;;;;;;21.72;42.18;101825.00;4965243;28;114035;-73
2022/08/12 03:06:37;;;;;;;4.97;3.78;;;;;;;21.71;42.13;101825.94;4950220;28;113934;-73
2022/08/12 03:09:05;;;;;;;6.75;4.05;;;;;;;21.71;42.24;101828.66;4966485;28;123355;-73
2022/08/12 03:11:44;;;;;;;5.07;4.03;;;;;;;21.68;42.39;101823.47;4967999;28;123733;-73
2022/08/12 03:14:18;;;;;;;7.97;4.32;;;;;;;21.66;42.33;101820.03;4964563;28;115229;-73
2022/08/12 03:16:54;;;;;;;5.95;4.00;;;;;;;21.64;42.63;101827.41;4964702;28;113925;-73
2022/08/12 03:19:23;;;;;;;6.53;4.03;;;;;;;21.63;42.48;101823.00;4961835;28;124061;-73
2022/08/12 03:21:54;;;;;;;6.22;4.15;;;;;;;21.60;42.82;101821.38;4946207;28;122759;-73
2022/08/12 03:24:38;;;;;;;10.50;4.50;;;;;;;21.57;42.60;101822.47;4949955;28;113318;-73
2022/08/12 03:27:07;;;;;;;6.03;4.40;;;;;;;21.55;42.91;101820.88;4960253;28;113840;-73
2022/08/12 03:29:38;;;;;;;7.68;4.50;;;;;;;21.53;43.21;101820.13;4965539;28;123735;-73
2022/08/12 03:32:18;;;;;;;5.90;4.45;;;;;;;21.50;43.34;101821.22;4964921;28;125375;-73
2022/08/12 03:35:06;;;;;;;4.95;4.03;;;;;;;21.48;43.49;101811.53;4961715;28;115215;-73
2022/08/12 03:37:35;;;;;;;6.28;4.40;;;;;;;21.46;43.40;101814.34;4966056;28;113321;-73
2022/08/12 03:40:03;;;;;;;9.52;4.88;;;;;;;21.45;43.68;101814.47;4963598;28;123858;-73
2022/08/12 03:42:40;;;;;;;7.13;4.47;;;;;;;21.44;43.89;101819.00;4948867;28;123767;-74
2022/08/12 04:01:56;;;;;;;6.53;4.78;;;;;;;21.42;43.90;101829.00;4962368;28;124085;-74
2022/08/12 04:04:28;;;;;;;7.88;4.60;;;;;;;21.41;43.78;101835.34;4963915;28;124218;-74
2022/08/12 04:06:56;;;;;;;8.02;4.78;;;;;;;21.41;43.74;101829.13;4963362;28;113516;-74
2022/08/12 04:09:24;;;;;;;6.45;4.75;;;;;;;21.40;44.03;101828.25;4964169;28;115410;-74
2022/08/12 04:14:37;;;;;;;7.05;4.60;;;;;;;21.36;43.87;101829.44;4956288;28;123419;-74
2022/08/12 04:17:04;;;;;;;5.97;4.68;;;;;;;21.34;44.09;101831.41;4954138;28;114198;-74
2022/08/12 04:19:31;;;;;;;6.03;4.40;;;;;;;21.32;44.21;101822.56;4965607;28;113593;-73
2022/08/12 04:22:00;;;;;;;7.60;4.95;;;;;;;21.32;44.22;101817.19;4966443;28;124687;-74
2022/08/12 04:24:34;;;;;;;6.00;4.80;;;;;;;21.29;44.44;101823.66;4956205;28;124070;-74
2022/08/12 04:27:07;;;;;;;7.95;4.63;;;;;;;21.27;44.49;101819.38;4953447;28;113932;-74
2022/08/12 04:29:36;;;;;;;6.88;4.20;;;;;;;21.25;44.50;101821.31;4957848;28;113555;-74
2022/08/12 04:32:26;;;;;;;6.72;4.32;;;;;;;21.22;44.53;101821.56;4956230;28;123505;-74
2022/08/12 04:34:54;;;;;;;6.70;4.43;;;;;;;21.19;44.52;101820.81;4961005;28;124005;-74
2022/08/12 04:37:22;;;;;;;7.50;4.68;;;;;;;21.18;44.94;101816.38;4963290;28;113489;-74
2022/08/12 04:39:50;;;;;;;5.80;4.47;;;;;;;21.17;44.64;101816.50;4964821;28;114566;-74
2022/08/12 04:42:18;;;;;;;6.35;4.60;;;;;;;21.15;44.68;101821.13;4937460;28;124011;-74
2022/08/12 04:44:47;;;;;;;6.20;4.70;;;;;;;21.13;45.08;101818.53;4962515;28;122733;-74
2022/08/12 04:47:15;;;;;;;6.03;4.43;;;;;;;21.12;45.10;101811.47;4965490;28;115167;-74
2022/08/12 04:49:45;;;;;;;9.15;4.78;;;;;;;21.11;45.27;101815.13;4961655;28;113556;-74
2022/08/12 04:52:12;;;;;;;5.80;4.47;;;;;;;21.11;45.15;101815.13;4964348;28;124226;-74
2022/08/12 04:54:40;;;;;;;6.38;4.47;;;;;;;21.11;45.14;101815.13;4962039;28;124586;-74
2022/08/12 04:57:08;;;;;;;9.15;4.65;;;;;;;21.11;45.28;101820.50;4961996;28;116026;-74
2022/08/12 04:59:36;;;;;;;6.40;4.70;;;;;;;21.11;45.25;101817.81;4965502;28;114883;-74
2022/08/12 05:02:16;;;;;;;7.13;5.00;;;;;;;21.12;45.39;101822.22;4967614;28;123197;-74
2022/08/12 05:04:50;;;;;;;6.68;4.60;;;;;;;21.13;45.46;101829.31;4961267;28;122080;-74
2022/08/12 05:07:19;;;;;;;6.22;4.60;;;;;;;21.14;45.65;101825.66;4967013;28;114201;-74
2022/08/12 05:09:46;;;;;;;9.20;5.20;;;;;;;21.15;45.53;101826.53;4964190;28;114127;-74
2022/08/12 05:12:35;;;;;;;8.68;5.50;;;;;;;21.16;45.91;101834.50;4958361;28;123911;-74
2022/08/12 05:15:03;;;;;;;;;;;;;;;21.17;44.82;101830.84;4962121;28;122758;-74
2022/08/12 05:17:46;;;;;;;6.50;5.18;;;;;;;21.20;45.17;101835.97;4962432;28;115232;-74
2022/08/12 05:20:16;;;;;;;6.60;4.57;;;;;;;21.22;45.43;101837.72;4964645;28;113020;-74
2022/08/12 05:22:44;;;;;;;7.10;4.60;;;;;;;21.24;45.81;101841.16;4946478;28;124504;-74
2022/08/12 05:25:12;;;;;;;7.38;5.35;;;;;;;21.24;46.00;101830.38;4965358;28;123759;-74
2022/08/12 05:27:39;;;;;;;7.15;4.72;;;;;;;21.25;46.18;101832.09;4948494;28;113320;-74
2022/08/12 05:30:26;;;;;;;6.40;4.85;;;;;;;21.27;45.97;101835.56;4965539;28;114242;-74
2022/08/12 05:32:54;;;;;;;7.25;5.03;;;;;;;21.30;46.33;101846.06;4967225;28;124130;-74
2022/08/12 05:35:26;;;;;;;8.55;4.63;;;;;;;21.31;46.32;101837.03;4963021;28;123639;-74
2022/08/12 05:38:55;;;;;;;6.68;4.97;;;;;;;21.34;46.46;101836.78;4949356;28;113596;-74
2022/08/12 05:40:41;;;;;;;8.43;4.88;;;;;;;21.38;46.46;101838.31;4966543;28;114395;-74
2022/08/12 05:43:08;;;;;;;7.22;4.72;;;;;;;21.42;46.64;101847.88;4967167;28;124162;-74
2022/08/12 05:45:35;;;;;;;6.97;4.90;;;;;;;21.47;46.87;101848.41;4964087;28;122979;-74
2022/08/12 05:48:08;;;;;;;8.10;4.68;;;;;;;21.52;46.84;101846.22;4961730;28;114694;-74
2022/08/12 05:50:36;;;;;;;6.60;5.15;;;;;;;21.58;47.02;101840.34;4969579;28;115352;-74
2022/08/12 05:53:05;;;;;;;7.65;4.72;;;;;;;21.65;46.85;101846.16;4966500;28;123755;-74
2022/08/12 05:55:34;;;;;;;7.63;4.82;;;;;;;21.71;47.05;101844.81;4969538;28;123528;-74
2022/08/12 05:58:01;;;;;;;9.15;5.18;;;;;;;21.76;47.12;101848.03;4969375;28;113656;-74
2022/08/12 06:00:30;;;;;;;6.32;5.07;;;;;;;21.82;47.08;101852.09;4968386;28;114234;-74
2022/08/12 06:03:00;;;;;;;6.65;4.82;;;;;;;21.87;47.34;101850.78;4968711;28;123986;-73
2022/08/12 06:05:29;;;;;;;9.25;4.90;;;;;;;21.95;47.28;101860.97;4952182;28;123520;-73
2022/08/12 06:07:56;;;;;;;8.20;5.30;;;;;;;22.01;47.53;101846.16;4967188;28;113275;-73
2022/08/12 06:10:32;;;;;;;6.95;5.45;;;;;;;22.09;47.41;101854.50;4946979;28;113435;-73
2022/08/12 06:13:06;;;;;;;7.22;5.05;;;;;;;22.17;47.42;101852.06;4963771;28;124440;-73
2022/08/12 06:15:38;;;;;;;6.60;5.20;;;;;;;22.25;47.37;101849.66;4969249;28;124116;-73
2022/08/12 06:18:08;;;;;;;6.75;4.95;;;;;;;22.35;47.33;101855.19;4962534;28;114856;-73
2022/08/12 06:20:42;;;;;;;7.63;4.90;;;;;;;22.45;47.08;101860.72;4962275;28;114341;-73
2022/08/12 06:23:10;;;;;;;8.65;4.80;;;;;;;22.53;47.04;101852.88;4967501;28;123082;-73
2022/08/12 06:25:37;;;;;;;6.43;4.72;;;;;;;22.65;46.99;101853.72;4967635;28;122519;-73
2022/08/12 06:28:16;;;;;;;6.35;5.15;;;;;;;22.75;47.06;101852.00;4966836;28;114744;-73
2022/08/12 06:30:45;;;;;;;8.80;5.13;;;;;;;22.88;47.13;101851.88;4964758;28;113711;-73
2022/08/12 06:33:28;;;;;;;7.63;4.97;;;;;;;23.00;46.77;101845.47;4966831;28;124049;-73
2022/08/12 06:36:18;;;;;;;9.10;5.07;;;;;;;23.15;46.70;101848.78;4964967;28;124338;-73
2022/08/12 06:38:47;;;;;;;12.55;4.85;;;;;;;23.28;46.34;101843.19;4966403;28;115321;-73
2022/08/12 06:44:01;;;;;;;8.77;5.65;;;;;;;23.58;45.98;101844.31;4966204;28;124348;-73
2022/08/12 06:46:31;;;;;;;7.40;5.07;;;;;;;23.71;45.84;101845.88;4966911;28;124007;-73
2022/08/12 06:48:58;;;;;;;9.60;4.93;;;;;;;23.85;45.83;101833.91;4968686;28;114429;-73
2022/08/12 06:51:30;;;;;;;7.78;5.30;;;;;;;24.03;45.61;101827.88;4950819;28;113260;-73
2022/08/12 06:53:59;;;;;;;9.73;5.32;;;;;;;24.20;45.45;101824.56;4966129;28;123160;-73
2022/08/12 06:56:27;;;;;;;8.95;5.30;;;;;;;24.39;45.23;101831.06;4963538;28;123803;-73
2022/08/12 06:59:14;;;;;;;7.40;5.60;;;;;;;24.58;44.90;101828.50;4965330;28;114765;-73
2022/08/12 07:01:41;;;;;;;8.65;5.32;;;;;;;24.76;44.71;101825.13;4951134;28;114244;-73
2022/08/12 07:04:19;;;;;;;7.07;5.07;;;;;;;24.94;44.64;101828.88;4967517;28;123729;-73
2022/08/12 07:07:05;;;;;;;6.05;4.60;;;;;;;25.13;44.25;101827.19;4948307;28;122259;-74
2022/08/12 07:09:33;;;;;;;7.18;4.75;;;;;;;25.30;43.93;101834.69;4968265;28;114442;-73
2022/08/12 07:12:21;;;;;;;5.80;3.95;;;;;;;25.51;43.39;101836.41;4967752;28;113333;-74
2022/08/12 07:14:50;;;;;;;7.95;4.43;;;;;;;25.68;43.04;101827.53;4968700;28;124456;-74
2022/08/12 07:17:17;;;;;;;8.63;4.72;;;;;;;25.88;42.73;101832.94;4965381;28;124286;-73
2022/08/12 07:19:45;;;;;;;6.28;4.30;;;;;;;26.06;42.38;101836.66;4965082;28;114124;-74
2022/08/12 07:22:15;;;;;;;6.35;3.88;;;;;;;26.22;41.91;101842.31;4963469;28;113583;-74
2022/08/12 07:25:29;;;;;;;5.70;3.85;;;;;;;26.39;41.98;101837.97;4968641;28;123805;-74
2022/08/12 07:27:29;;;;;;;6.70;3.95;;;;;;;26.59;41.63;101833.34;4968194;28;123861;-74
2022/08/12 07:29:57;;;;;;;7.70;4.00;;;;;;;26.78;41.03;101840.53;4966386;28;114987;-74
2022/08/12 07:32:31;;;;;;;5.32;3.92;;;;;;;27.00;40.92;101842.00;4967216;28;114770;-74
2022/08/12 07:34:58;;;;;;;6.15;4.00;;;;;;;27.20;40.62;101836.44;4963724;28;124282;-73
2022/08/12 07:37:25;;;;;;;5.03;3.70;;;;;;;27.38;40.32;101833.75;4962482;28;123842;-74
2022/08/12 07:39:52;;;;;;;5.38;4.05;;;;;;;27.56;39.91;101847.34;4952245;28;114623;-74
2022/08/12 07:42:28;;;;;;;7.90;3.88;;;;;;;27.73;39.74;101849.19;4966238;28;112966;-74
2022/08/12 07:44:55;;;;;;;6.80;3.80;;;;;;;27.92;39.25;101852.78;4965844;28;123028;-74
2022/08/12 07:47:23;;;;;;;7.70;3.67;;;;;;;28.10;39.08;101847.28;4968111;28;123651;-73
2022/08/12 07:49:53;;;;;;;5.78;3.63;;;;;;;28.29;38.60;101855.25;4964260;28;113656;-74
2022/08/12 07:52:40;;;;;;;7.38;3.80;;;;;;;28.46;38.29;101849.88;4961903;28;113702;-74
2022/08/12 07:55:09;;;;;;;7.25;3.50;;;;;;;28.65;38.14;101848.81;4964477;28;123904;-74
2022/08/12 07:57:57;;;;;;;7.07;3.22;;;;;;;28.86;37.36;101857.44;4947670;28;123097;-74
2022/08/12 08:00:27;;;;;;;5.20;2.97;;;;;;;29.01;37.05;101860.38;4964757;28;114106;-74
2022/08/12 08:02:54;;;;;;;10.13;3.42;;;;;;;29.17;36.82;101854.13;4964768;28;113731;-74
2022/08/12 08:05:23;;;;;;;5.82;3.00;;;;;;;29.29;36.14;101858.25;4966705;28;123748;-74
2022/08/12 08:07:52;;;;;;;6.05;3.47;;;;;;;29.42;35.96;101856.91;4962909;28;122807;-74
2022/08/12 08:10:19;;;;;;;5.10;3.13;;;;;;;29.56;35.81;101853.50;4964926;28;114309;-74
2022/08/12 08:12:52;;;;;;;5.93;3.88;;;;;;;29.69;35.00;101859.31;4959142;28;113876;-74
2022/08/12 08:15:22;;;;;;;9.48;3.58;;;;;;;29.83;34.62;101854.22;4965057;28;124552;-75
2022/08/12 08:18:12;;;;;;;5.43;3.03;;;;;;;29.96;34.55;101849.09;4961377;28;123601;-74
2022/08/12 08:20:55;;;;;;;6.80;3.40;;;;;;;30.08;34.08;101846.84;4943884;28;114477;-74
2022/08/12 08:24:13;;;;;;;6.68;3.28;;;;;;;30.21;33.88;101851.78;4950801;28;114599;-74
2022/08/12 08:26:21;;;;;;;5.78;3.13;;;;;;;30.37;33.93;101846.31;4965335;28;124986;-75
2022/08/12 08:28:49;;;;;;;6.43;2.83;;;;;;;30.50;33.45;101853.97;4944697;28;123279;-75
2022/08/12 08:31:17;;;;;;;6.03;3.22;;;;;;;30.61;33.11;101847.22;4959948;28;114178;-76
2022/08/12 08:33:44;;;;;;;7.40;3.00;;;;;;;30.73;33.63;101851.28;4954728;28;113090;-75
2022/08/12 08:36:31;;;;;;;5.53;2.90;;;;;;;30.91;32.85;101847.47;4947690;28;123499;-75
2022/08/12 08:38:58;;;;;;;5.53;2.83;;;;;;;31.05;32.83;101849.47;4963401;28;122943;-74
2022/08/12 08:44:36;;;;;;;7.13;2.75;;;;;;;31.29;31.82;101844.84;4963927;28;114571;-75
2022/08/12 08:47:05;;;;;;;5.22;2.97;;;;;;;31.38;31.50;101854.72;4959785;28;123253;-75
2022/08/12 08:49:34;;;;;;;8.38;2.88;;;;;;;31.48;30.62;101855.38;4954431;28;125311;-75
2022/08/12 08:52:09;;;;;;;6.55;2.88;;;;;;;31.52;30.74;101856.69;4944769;28;114495;-76
2022/08/12 08:54:36;;;;;;;6.32;3.00;;;;;;;31.61;30.51;101852.84;4955620;28;113393;-74
2022/08/12 08:57:06;;;;;;;6.07;2.70;;;;;;;31.69;30.04;101851.09;4966152;28;124715;-74
2022/08/12 08:59:34;;;;;;;4.88;2.85;;;;;;;31.74;29.75;101848.63;4960979;28;123847;-75
2022/08/12 09:02:02;;;;;;;4.55;2.60;;;;;;;31.83;29.99;101853.00;4960815;28;114354;-74
2022/08/12 09:04:29;;;;;;;6.85;2.70;;;;;;;31.94;30.27;101851.72;4963773;28;115018;-74
2022/08/12 09:07:17;;;;;;;4.95;2.92;;;;;;;32.01;29.74;101856.25;4961602;28;124153;-73
2022/08/12 09:10:06;;;;;;;3.83;2.53;;;;;;;32.09;29.60;101846.28;4957944;28;124395;-74
2022/08/12 09:15:50;;;;;;;5.00;2.60;;;;;;;32.34;29.59;101845.00;4959055;28;113971;-74
2022/08/12 09:18:26;;;;;;;5.63;2.60;;;;;;;32.42;29.35;101845.91;4947939;28;124065;-74
2022/08/12 09:20:59;;;;;;;4.40;2.65;;;;;;;32.52;29.57;101841.00;4956552;28;123867;-74
2022/08/12 09:23:29;;;;;;;6.85;2.55;;;;;;;32.62;29.33;101841.56;4960036;28;114279;-74
2022/08/12 09:26:17;;;;;;;4.65;2.58;;;;;;;32.71;28.43;101840.44;4955178;28;112206;-74
2022/08/12 09:28:46;;;;;;;3.47;2.50;;;;;;;32.76;28.54;101837.97;4968542;28;124947;-74
2022/08/12 09:31:18;;;;;;;4.63;2.72;;;;;;;32.82;27.84;101841.00;4951625;28;124109;-74
2022/08/12 09:34:07;;;;;;;4.07;2.30;;;;;;;32.89;27.72;101841.91;4955021;28;114729;-76
2022/08/12 09:36:55;;;;;;;4.15;2.35;;;;;;;33.00;28.35;101833.16;4967271;28;114262;-74
2022/08/12 09:39:30;;;;;;;6.10;2.63;;;;;;;33.13;27.91;101838.88;4958095;28;123338;-75
2022/08/12 09:45:25;;;;;;;4.00;2.70;;;;;;;33.35;27.66;101830.63;4991155;28;114929;-74
2022/08/12 09:48:16;;;;;;;4.35;2.70;;;;;;;33.46;27.36;101826.50;4986741;28;112498;-73
2022/08/12 09:50:49;;;;;;;3.97;2.38;;;;;;;33.59;27.62;101820.25;4992352;28;124017;-72
2022/08/12 09:53:23;;;;;;;2.65;2.35;;;;;;;33.66;26.62;101815.72;4974073;28;123795;-74
2022/08/12 09:56:06;;;;;;;4.97;2.42;;;;;;;33.70;26.26;101817.00;4965279;28;113325;-74
2022/08/12 09:58:53;;;;;;;5.68;2.40;;;;;;;33.78;26.00;101830.63;4953322;28;114096;-74
2022/08/12 10:01:28;;;;;;;4.20;2.60;;;;;;;33.87;26.17;101823.94;4965138;28;124573;-74
2022/08/12 10:04:15;;;;;;;4.90;2.47;;;;;;;33.99;26.24;101820.63;4964195;28;123919;-75
2022/08/12 10:06:46;;;;;;;4.28;2.33;;;;;;;34.05;26.00;101825.31;4966885;28;117152;-75
2022/08/12 10:09:22;;;;;;;4.57;2.65;;;;;;;34.11;25.46;101819.00;4966493;28;114752;-75
2022/08/12 10:15:02;;;;;;;3.75;2.20;;;;;;;34.25;25.83;101806.22;4966740;28;123387;-74
2022/08/12 10:17:32;;;;;;;4.03;2.70;;;;;;;34.35;25.42;101808.59;4958622;28;114054;-75
2022/08/12 10:19:59;;;;;;;5.57;2.50;;;;;;;34.43;25.57;101805.66;4956959;28;113716;-75
2022/08/12 10:22:29;;;;;;;5.88;2.70;;;;;;;34.52;24.97;101801.69;4955518;28;124543;-74
2022/08/12 10:31:04;;;;;;;3.53;2.42;;;;;;;34.70;24.29;101796.50;4970147;28;113209;-73
2022/08/12 10:33:33;;;;;;;4.75;2.25;;;;;;;34.75;24.49;101789.53;4970218;28;125127;-73
2022/08/12 10:36:21;;;;;;;4.78;2.53;;;;;;;34.79;24.59;101777.03;4959127;28;124086;-73
2022/08/12 10:39:13;;;;;;;4.78;2.30;;;;;;;34.86;24.19;101777.91;4967708;28;114142;-74
2022/08/12 10:45:08;;;;;;;6.20;2.70;;;;;;;34.95;24.18;101765.66;4961751;28;123648;-73
2022/08/12 10:47:40;;;;;;;4.65;2.30;;;;;;;34.98;23.42;101765.25;4966688;28;123440;-73
2022/08/12 10:50:27;;;;;;;7.15;2.60;;;;;;;34.99;23.25;101766.94;4967809;28;114150;-73
2022/08/12 10:53:19;;;;;;;3.53;2.50;;;;;;;35.01;23.04;101759.31;4968551;28;113635;-73
2022/08/12 10:56:06;;;;;;;4.22;2.30;;;;;;;35.02;22.97;101760.19;4966076;28;122874;-73
2022/08/12 10:58:35;;;;;;;4.80;2.28;;;;;;;35.00;22.91;101749.38;4954138;28;123913;-73
2022/08/12 11:01:04;;;;;;;4.70;2.47;;;;;;;34.99;22.61;101755.91;4948901;28;115639;-73
2022/08/12 11:03:52;;;;;;;3.30;2.30;;;;;;;34.93;21.97;101740.25;4968216;28;115155;-73
2022/08/12 11:06:46;;;;;;;4.97;2.33;;;;;;;34.87;22.52;101744.69;4950995;28;124133;-73
2022/08/12 11:09:34;;;;;;;2.55;2.10;;;;;;;34.85;22.43;101743.22;4961168;28;123784;-73
2022/08/12 11:12:21;;;;;;;5.07;2.60;;;;;;;34.90;22.72;101746.16;4967110;28;113333;-73
2022/08/12 11:15:09;;;;;;;3.25;2.20;;;;;;;34.93;21.87;101729.22;4963049;28;114422;-73
2022/08/12 11:17:50;;;;;;;4.13;2.35;;;;;;;34.97;22.38;101730.50;4966459;28;123434;-73
2022/08/12 11:20:21;;;;;;;7.10;2.50;;;;;;;35.03;22.61;101724.16;4968434;28;125104;-74
2022/08/12 11:23:00;;;;;;;3.28;2.13;;;;;;;35.10;22.15;101721.41;4949808;28;113751;-74
2022/08/12 11:25:48;;;;;;;2.95;2.30;;;;;;;35.15;22.83;101720.75;4952344;28;114538;-73
2022/08/12 11:28:25;;;;;;;3.05;2.47;;;;;;;35.22;22.06;101716.16;4962349;28;124189;-73
2022/08/12 11:31:02;;;;;;;3.08;2.30;;;;;;;35.21;21.62;101714.47;4963989;28;123515;-73
2022/08/12 11:33:29;;;;;;;5.03;2.55;;;;;;;35.19;21.76;101716.56;4963610;28;114559;-73
2022/08/12 11:36:16;;;;;;;3.75;2.35;;;;;;;35.20;21.55;101713.59;4963417;28;113079;-73
2022/08/12 11:38:49;;;;;;;4.53;2.55;;;;;;;35.21;21.99;101714.47;4960299;28;124139;-73
2022/08/12 11:41:18;;;;;;;3.65;2.30;;;;;;;35.24;21.56;101714.03;4962805;28;123614;-73
2022/08/12 11:44:01;;;;;;;2.58;2.30;;;;;;;35.22;21.72;101710.63;4949423;28;114365;-73
2022/08/12 11:46:49;;;;;;;3.67;2.60;;;;;;;35.23;21.79;101707.66;4964684;28;113043;-73
2022/08/12 11:49:22;;;;;;;4.90;2.42;;;;;;;35.28;21.52;101698.75;4963898;28;123776;-73
2022/08/12 11:52:02;;;;;;;3.80;2.40;;;;;;;35.29;21.44;101695.78;4965920;28;122881;-73
2022/08/12 11:54:30;;;;;;;5.88;2.45;;;;;;;35.31;21.85;101698.34;4967824;28;114056;-73
2022/08/12 11:56:58;;;;;;;3.42;2.25;;;;;;;35.33;21.85;101695.38;4966368;28;115041;-73
2022/08/12 11:59:32;;;;;;;7.70;2.60;;;;;;;35.37;21.55;101691.97;4963585;28;123069;-73
2022/08/12 12:02:19;;;;;;;3.28;2.33;;;;;;;35.44;21.61;101687.31;4968747;28;123785;-73
2022/08/12 12:04:50;;;;;;;5.05;2.72;;;;;;;35.56;21.92;101683.91;4951999;28;114014;-73
2022/08/12 12:07:21;;;;;;;3.03;2.55;;;;;;;35.65;21.42;101671.59;4965948;28;113916;-73
2022/08/12 12:10:00;;;;;;;2.83;2.03;;;;;;;35.75;21.27;101677.50;4947032;28;124633;-73
2022/08/12 12:12:27;;;;;;;3.70;2.15;;;;;;;35.85;20.85;101677.91;4962505;28;124541;-74
2022/08/12 12:14:55;;;;;;;3.97;2.15;;;;;;;35.90;20.88;101680.00;4967375;28;114002;-73
2022/08/12 12:17:26;;;;;;;2.22;2.03;;;;;;;35.97;21.06;101685.50;4965366;28;113786;-73
2022/08/12 12:20:08;;;;;;;5.07;2.45;;;;;;;35.99;20.69;101678.69;4960891;28;124573;-73
2022/08/12 12:22:37;;;;;;;5.65;2.65;;;;;;;35.99;20.65;101672.34;4949043;28;121996;-73
2022/08/12 12:25:05;;;;;;;2.92;2.33;;;;;;;35.99;20.60;101672.34;4965200;28;114111;-73
2022/08/12 12:27:53;;;;;;;3.97;2.58;;;;;;;35.98;20.42;101665.13;4959691;28;113108;-72
2022/08/12 12:30:35;;;;;;;3.67;2.30;;;;;;;35.98;20.37;101665.13;4952091;28;124125;-73
2022/08/12 12:33:05;;;;;;;3.72;2.30;;;;;;;36.01;20.39;101664.72;4958648;28;123925;-72
2022/08/12 12:35:33;;;;;;;3.92;2.42;;;;;;;36.05;20.37;101660.44;4964971;28;113695;-73
2022/08/12 12:38:20;;;;;;;4.05;2.05;;;;;;;36.12;19.96;101650.22;4960026;28;114249;-73
2022/08/12 12:40:51;;;;;;;3.97;2.13;;;;;;;36.19;20.61;101651.06;4963838;28;124312;-73
2022/08/12 12:43:20;;;;;;;6.10;2.08;;;;;;;36.21;19.30;101651.69;4951389;28;123847;-74
2022/08/12 12:46:07;;;;;;;6.22;2.28;;;;;;;36.15;19.24;101652.56;4962317;28;115499;-74
2022/08/12 12:48:34;;;;;;;3.53;2.38;;;;;;;36.11;19.46;101654.06;4955810;28;115090;-73
2022/08/12 12:51:17;;;;;;;5.22;2.20;;;;;;;36.08;19.51;101637.09;4950637;28;122048;-74
2022/08/12 12:54:04;;;;;;;4.97;2.10;;;;;;;36.11;19.54;101636.66;4948654;28;123873;-74
2022/08/12 12:56:39;;;;;;;2.67;1.90;;;;;;;36.19;19.70;101634.53;4967492;28;114193;-74
2022/08/12 12:59:07;;;;;;;3.28;1.88;;;;;;;36.29;19.51;101633.19;4965779;28;114028;-74
2022/08/12 13:01:54;;;;;;;5.18;2.25;;;;;;;36.39;19.28;101636.31;4960277;28;124227;-74
2022/08/12 13:04:22;;;;;;;3.97;2.25;;;;;;;36.43;19.37;101634.78;4946610;28;124033;-74
2022/08/12 13:06:51;;;;;;;2.05;1.85;;;;;;;36.47;19.67;101636.06;4951220;28;113796;-74
2022/08/12 13:09:18;;;;;;;6.07;2.20;;;;;;;36.55;19.23;101623.91;4950192;28;112986;-74
2022/08/12 13:11:49;;;;;;;5.88;1.98;;;;;;;36.62;19.53;101617.25;4966753;28;123008;-74
2022/08/12 13:14:20;;;;;;;4.75;2.03;;;;;;;36.69;19.11;101622.75;4972529;28;122962;-74
2022/08/12 13:17:01;;;;;;;2.38;1.73;;;;;;;36.74;18.89;101616.56;4968939;28;115579;-73
2022/08/12 13:19:35;;;;;;;3.65;2.20;;;;;;;36.79;19.70;101616.75;4961786;28;113031;-75
2022/08/12 13:22:17;;;;;;;2.63;1.95;;;;;;;36.89;19.49;101617.06;4942669;28;125690;-74
2022/08/12 13:24:49;;;;;;;2.58;2.03;;;;;;;36.98;18.77;101617.66;4949673;28;123820;-74
2022/08/12 13:27:28;;;;;;;2.22;2.03;;;;;;;37.00;18.58;101613.56;4949947;28;113487;-74
2022/08/12 13:30:09;;;;;;;2.78;2.10;;;;;;;37.00;18.74;101608.06;4952137;28;114226;-74
2022/08/12 13:32:39;;;;;;;2.22;1.90;;;;;;;37.02;18.54;101616.13;4961247;28;123821;-73